Time;durP1;ratioP1;P1;durP2;ratioP2;P2;SDS_P1;SDS_P2;PMS_P1;PMS_P2;Temp;Humidity;BMP_temperature;BMP_pressure;BME280_temperature;BME280_humidity;BME280_pressure;Samples;Min_cycle;Max_cycle;Signal;HPM_P1;HPM_P2
2022/05/02 00:01:13;;;;;;;14.88;10.07;;;;;;;10.45;55.21;102268.72;5172953;28;20429;-48
2022/05/02 00:03:46;;;;;;;15.90;10.32;;;;;;;10.47;55.33;102280.84;5175937;28;20514;-48
2022/05/02 00:06:19;;;;;;;12.70;10.23;;;;;;;10.52;55.45;102289.25;5173230;28;20439;-48
2022/05/02 00:08:51;;;;;;;17.42;9.77;;;;;;;10.40;55.55;102279.59;5172811;28;20422;-47
2022/05/02 00:11:25;;;;;;;13.52;9.50;;;;;;;10.43;55.75;102287.31;5170379;28;20448;-47
2022/05/02 00:13:57;;;;;;;15.90;9.70;;;;;;;10.37;55.77;102291.25;5171662;28;20478;-49
2022/05/02 00:16:30;;;;;;;15.60;9.68;;;;;;;10.35;55.86;102287.03;5171465;28;20524;-50
2022/05/02 00:19:03;;;;;;;16.15;10.07;;;;;;;10.33;56.06;102294.22;5159206;28;20435;-49
2022/05/02 00:21:36;;;;;;;16.98;10.07;;;;;;;10.30;56.00;102282.09;5169769;28;20434;-51
2022/05/02 00:24:09;;;;;;;14.77;10.10;;;;;;;10.30;56.28;102286.53;5171614;28;20895;-49
2022/05/02 00:26:42;;;;;;;17.05;9.85;;;;;;;10.28;56.07;102285.78;5174668;28;20423;-49
2022/05/02 00:29:15;;;;;;;16.98;10.20;;;;;;;10.28;56.04;102289.28;5172190;28;20430;-47
2022/05/02 00:31:47;;;;;;;16.55;10.13;;;;;;;10.29;56.03;102285.69;5171200;28;20423;-48
2022/05/02 00:34:20;;;;;;;15.32;10.75;;;;;;;10.29;56.26;102276.94;5167487;28;20522;-47
2022/05/02 00:36:52;;;;;;;14.95;10.75;;;;;;;10.30;56.01;102275.97;5171877;28;20626;-52
2022/05/02 00:39:25;;;;;;;15.70;10.80;;;;;;;10.22;56.07;102259.78;5170664;28;21111;-48
2022/05/02 00:41:59;;;;;;;11.40;9.73;;;;;;;10.28;55.99;102270.81;5173719;28;20405;-49
2022/05/02 00:44:31;;;;;;;18.38;11.43;;;;;;;10.26;56.02;102266.56;5172115;28;20508;-50
2022/05/02 00:47:04;;;;;;;16.63;10.88;;;;;;;10.27;56.28;102263.00;5173265;28;20458;-48
2022/05/02 00:49:37;;;;;;;16.10;12.10;;;;;;;10.25;56.08;102276.28;5170623;28;20450;-50
2022/05/02 00:52:10;;;;;;;14.00;10.75;;;;;;;10.22;56.18;102265.94;5171483;28;20793;-47
2022/05/02 00:54:43;;;;;;;14.57;11.17;;;;;;;10.18;56.24;102263.63;5172050;28;20500;-48
2022/05/02 00:57:18;;;;;;;13.65;10.88;;;;;;;10.18;56.35;102268.91;5171820;28;20507;-52
2022/05/02 00:59:50;;;;;;;15.40;11.32;;;;;;;10.18;56.36;102268.91;5174252;28;20435;-48
2022/05/02 01:02:23;;;;;;;17.80;11.48;;;;;;;10.16;56.56;102266.41;5171529;28;20412;-47
2022/05/02 01:04:55;;;;;;;14.10;11.03;;;;;;;10.15;56.44;102257.59;5173565;28;20400;-49
2022/05/02 01:07:27;;;;;;;13.90;10.45;;;;;;;10.15;56.42;102254.97;5172313;28;20419;-46
2022/05/02 01:10:00;;;;;;;13.38;11.52;;;;;;;10.09;56.41;102242.22;5172695;28;20407;-47
2022/05/02 01:12:33;;;;;;;12.17;10.27;;;;;;;10.11;56.33;102253.50;5173008;28;20562;-52
2022/05/02 01:15:07;;;;;;;17.33;10.63;;;;;;;10.12;56.37;102254.34;5170749;28;20441;-55
2022/05/02 01:17:41;;;;;;;16.58;11.32;;;;;;;9.75;56.41;102193.69;5175075;28;20471;-47
2022/05/02 01:20:16;;;;;;;12.38;10.30;;;;;;;10.00;56.53;102240.25;5173857;28;20504;-48
2022/05/02 01:22:48;;;;;;;16.55;12.70;;;;;;;10.05;56.45;102259.25;5174177;28;20796;-47
2022/05/02 01:25:20;;;;;;;17.52;12.68;;;;;;;10.00;56.43;102250.81;5177807;28;20423;-48
2022/05/02 01:27:53;;;;;;;14.68;12.70;;;;;;;9.97;56.55;102247.56;5177246;28;20474;-48
2022/05/02 01:30:25;;;;;;;16.88;12.18;;;;;;;9.98;56.58;102247.44;5175746;28;21088;-48
2022/05/02 01:32:58;;;;;;;18.80;12.33;;;;;;;9.83;56.61;102233.56;5177882;28;20408;-50
2022/05/02 01:35:32;;;;;;;18.90;13.27;;;;;;;9.87;56.66;102239.47;5176189;28;20776;-47
2022/05/02 01:38:05;;;;;;;17.07;12.53;;;;;;;9.91;56.90;102246.22;5165830;28;20423;-40
2022/05/02 01:40:37;;;;;;;18.73;12.02;;;;;;;9.88;56.66;102242.00;5170511;28;20425;-46
2022/05/02 01:43:11;;;;;;;16.52;12.52;;;;;;;9.86;57.07;102256.25;5168942;28;20764;-48
2022/05/02 01:45:44;;;;;;;17.90;13.05;;;;;;;9.85;56.83;102247.50;5172314;28;20430;-47
2022/05/02 01:48:17;;;;;;;18.58;13.27;;;;;;;9.82;56.82;102247.72;5172787;28;20897;-46
2022/05/02 01:50:50;;;;;;;22.13;13.10;;;;;;;9.80;56.64;102243.50;5178083;28;20513;-49
2022/05/02 01:53:23;;;;;;;15.23;12.40;;;;;;;9.77;56.92;102234.00;5175054;28;20415;-47
2022/05/02 01:55:56;;;;;;;15.80;12.63;;;;;;;9.75;56.91;102238.53;5177169;28;20849;-46
2022/05/02 01:58:30;;;;;;;16.27;12.70;;;;;;;9.74;57.05;102228.13;5164497;28;20409;-47
2022/05/02 02:01:03;;;;;;;15.07;12.97;;;;;;;9.72;57.10;102237.91;5178090;28;20431;-48
2022/05/02 02:03:35;;;;;;;16.80;13.30;;;;;;;9.55;57.07;102212.75;5170492;28;20768;-49
2022/05/02 02:06:08;;;;;;;17.75;13.48;;;;;;;9.64;57.24;102243.75;5175465;28;21179;-47
2022/05/02 02:08:41;;;;;;;19.58;13.63;;;;;;;9.63;57.08;102235.00;5162816;28;20439;-49
2022/05/02 02:11:14;;;;;;;18.40;13.00;;;;;;;9.40;57.23;102193.59;5171389;28;20514;-47
2022/05/02 02:13:47;;;;;;;17.23;12.57;;;;;;;9.58;57.32;102229.22;5179259;28;20509;-45
2022/05/02 02:16:20;;;;;;;15.52;12.48;;;;;;;9.56;57.41;102235.53;5173517;28;20434;-47
2022/05/02 02:18:52;;;;;;;19.65;13.23;;;;;;;9.53;57.49;102233.13;5177359;28;20427;-46
2022/05/02 02:21:26;;;;;;;20.15;13.25;;;;;;;8.88;57.52;102134.00;5173959;28;23869;-49
2022/05/02 02:23:59;;;;;;;19.80;13.63;;;;;;;9.46;57.58;102240.63;5173624;28;20559;-49
2022/05/02 02:26:31;;;;;;;17.50;13.02;;;;;;;9.43;57.48;102231.13;5175306;28;20529;-47
2022/05/02 02:29:04;;;;;;;15.88;12.65;;;;;;;9.42;57.65;102241.81;5152558;28;20991;-48
2022/05/02 02:31:37;;;;;;;19.02;14.20;;;;;;;9.38;57.52;102227.13;5173542;28;20423;-46
2022/05/02 02:34:43;;;;;;;15.57;13.03;;;;;;;9.35;57.70;102232.63;5172948;28;20591;-48
2022/05/02 02:37:17;;;;;;;15.57;13.00;;;;;;;9.23;57.84;102227.28;5174388;28;20438;-49
2022/05/02 02:39:50;;;;;;;17.17;13.07;;;;;;;9.27;57.86;102235.81;5173470;28;20518;-48
2022/05/02 02:42:23;;;;;;;19.65;13.48;;;;;;;9.23;57.90;102227.28;5174766;28;20947;-46
2022/05/02 02:44:56;;;;;;;19.50;13.32;;;;;;;9.21;57.88;102226.53;5177031;28;20415;-46
2022/05/02 02:47:29;;;;;;;15.20;12.67;;;;;;;9.20;57.90;102230.13;5174483;28;20896;-46
2022/05/02 02:50:01;;;;;;;17.30;13.02;;;;;;;9.17;57.92;102227.69;5172955;28;21209;-49
2022/05/02 02:52:35;;;;;;;20.73;13.07;;;;;;;9.15;57.82;102226.94;5175016;28;20426;-46
2022/05/02 02:55:09;;;;;;;17.67;13.05;;;;;;;9.13;57.88;102252.56;5171274;28;20884;-51
2022/05/02 02:57:42;;;;;;;19.70;13.65;;;;;;;9.10;58.17;102226.41;5169681;28;20421;-48
2022/05/02 03:00:15;;;;;;;17.02;12.85;;;;;;;9.03;58.19;102211.97;5176164;28;20411;-49
2022/05/02 03:02:49;;;;;;;17.85;13.05;;;;;;;9.06;58.12;102217.03;5174141;28;20420;-51
2022/05/02 03:08:13;;;;;;;17.25;13.00;;;;;;;8.99;58.28;102216.63;5170681;28;20431;-47
2022/05/02 03:10:45;;;;;;;17.52;12.68;;;;;;;8.91;58.13;102203.13;5176881;28;20424;-49
2022/05/02 03:13:18;;;;;;;16.83;13.25;;;;;;;8.93;58.36;102209.13;5170510;28;20454;-48
2022/05/02 03:15:51;;;;;;;17.77;13.20;;;;;;;8.75;58.30;102178.78;5160282;28;20437;-47
2022/05/02 03:18:23;;;;;;;19.98;14.00;;;;;;;8.88;58.34;102218.31;5168036;28;20914;-46
2022/05/02 03:20:56;;;;;;;19.77;15.23;;;;;;;8.87;58.29;102206.09;5173461;28;20906;-46
2022/05/02 03:23:30;;;;;;;18.13;14.90;;;;;;;8.83;58.29;102213.38;5171498;28;20417;-47
2022/05/02 03:26:02;;;;;;;22.40;15.27;;;;;;;8.83;58.72;102212.53;5177800;28;20431;-46
2022/05/02 03:28:35;;;;;;;19.70;14.88;;;;;;;8.81;58.49;102211.78;5170422;28;20498;-48
2022/05/02 03:31:07;;;;;;;24.15;16.63;;;;;;;8.75;58.43;102205.97;5167815;28;20428;-47
2022/05/02 03:33:42;;;;;;;19.63;14.52;;;;;;;8.76;58.50;102210.31;5169924;28;20432;-48
2022/05/02 03:36:14;;;;;;;20.52;15.45;;;;;;;8.63;58.71;102188.38;5172799;28;20431;-49
2022/05/02 03:38:48;;;;;;;20.20;15.60;;;;;;;8.71;58.70;102207.13;5172271;28;20441;-46
2022/05/02 03:41:20;;;;;;;20.58;15.82;;;;;;;8.65;58.66;102201.44;5171855;28;20702;-47
2022/05/02 03:43:53;;;;;;;23.80;17.45;;;;;;;8.67;58.72;102212.69;5172688;28;20435;-49
2022/05/02 03:46:25;;;;;;;24.30;16.63;;;;;;;8.57;58.93;102225.66;5178229;28;20427;-55
2022/05/02 03:49:00;;;;;;;22.13;15.35;;;;;;;8.61;59.02;102208.72;5178124;28;20760;-52
2022/05/02 03:51:32;;;;;;;20.10;15.45;;;;;;;8.60;59.00;102209.63;5175780;28;20743;-53
2022/05/02 03:54:07;;;;;;;21.47;16.90;;;;;;;8.59;58.91;102205.31;5176807;28;20835;-52
2022/05/02 03:56:42;;;;;;;20.98;16.92;;;;;;;8.57;59.05;102201.94;5161709;28;20427;-49
2022/05/02 03:59:15;;;;;;;19.08;15.25;;;;;;;8.52;59.02;102201.44;5172004;28;20966;-47
2022/05/02 04:01:47;;;;;;;21.02;15.00;;;;;;;8.44;59.03;102201.09;5172508;28;20436;-48
2022/05/02 04:04:19;;;;;;;23.40;16.13;;;;;;;8.45;59.11;102206.22;5172205;28;20436;-47
2022/05/02 04:06:52;;;;;;;22.63;15.80;;;;;;;8.43;59.09;102207.31;5170950;28;20437;-46
2022/05/02 04:09:26;;;;;;;20.73;15.77;;;;;;;8.42;59.46;102200.34;5172291;28;20506;-46
2022/05/02 04:11:59;;;;;;;22.00;15.77;;;;;;;8.44;59.24;102219.50;5173319;28;20437;-47
2022/05/02 04:14:31;;;;;;;20.80;14.85;;;;;;;8.43;59.47;102208.16;5172325;28;20498;-50
2022/05/02 04:17:04;;;;;;;20.10;15.35;;;;;;;8.44;59.33;102216.88;5170571;28;20416;-50
2022/05/02 04:19:36;;;;;;;21.33;15.45;;;;;;;8.41;59.56;102206.56;5168280;28;20410;-48
2022/05/02 04:22:09;;;;;;;22.20;14.97;;;;;;;8.25;59.39;102180.38;5172762;28;20911;-49
2022/05/02 04:24:43;;;;;;;20.85;16.80;;;;;;;8.45;59.23;102221.19;5168849;28;20821;-50
2022/05/02 04:27:15;;;;;;;23.37;16.10;;;;;;;8.46;59.44;102212.38;5166905;28;20854;-51
2022/05/02 04:29:48;;;;;;;20.25;16.95;;;;;;;8.39;59.51;102203.16;5173417;28;20431;-51
2022/05/02 04:32:20;;;;;;;18.77;14.70;;;;;;;8.42;59.55;102201.16;5171085;28;20438;-50
2022/05/02 04:34:55;;;;;;;21.08;16.42;;;;;;;8.34;59.67;102213.16;5172275;28;20825;-50
2022/05/02 04:37:29;;;;;;;26.45;15.77;;;;;;;8.47;59.75;102206.16;5173463;28;20427;-47
2022/05/02 04:40:03;;;;;;;22.63;15.10;;;;;;;8.42;59.78;102208.22;5169915;28;20820;-47
2022/05/02 04:42:37;;;;;;;18.25;15.88;;;;;;;8.48;59.90;102213.09;5166929;28;20419;-48
2022/05/02 04:45:11;;;;;;;21.95;16.05;;;;;;;8.44;59.77;102199.28;5170981;28;20910;-50
2022/05/02 04:47:43;;;;;;;20.77;15.93;;;;;;;8.50;60.01;102205.94;5170456;28;20465;-48
2022/05/02 04:50:16;;;;;;;21.80;15.25;;;;;;;8.51;59.85;102216.34;5171030;28;20427;-48
2022/05/02 04:52:48;;;;;;;20.83;15.40;;;;;;;8.58;59.95;102211.56;5173094;28;20584;-47
2022/05/02 04:55:22;;;;;;;19.48;14.60;;;;;;;8.49;59.98;102188.47;5174212;28;20429;-46
2022/05/02 04:57:55;;;;;;;20.40;15.75;;;;;;;8.58;60.05;102211.56;5174781;28;20430;-51
2022/05/02 05:00:27;;;;;;;20.50;14.85;;;;;;;8.70;59.96;102216.00;5154638;28;20439;-49
2022/05/02 05:03:00;;;;;;;19.83;14.50;;;;;;;8.75;60.06;102219.13;5175544;28;20919;-54
2022/05/02 05:05:32;;;;;;;20.33;14.52;;;;;;;8.78;60.00;102207.56;5174053;28;20583;-47
2022/05/02 05:08:06;;;;;;;22.00;13.45;;;;;;;8.87;60.14;102216.63;5177888;28;20511;-47
2022/05/02 05:10:52;;;;;;;20.65;14.63;;;;;;;8.93;60.15;102221.47;5172252;28;20494;-48
2022/05/02 05:13:28;;;;;;;20.40;16.10;;;;;;;8.97;60.10;102213.25;5179149;28;20481;-46
2022/05/02 05:16:36;;;;;;;30.13;16.35;;;;;;;8.85;60.10;102192.16;5181824;28;20414;-46
2022/05/02 05:19:55;;;;;;;22.33;16.20;;;;;;;9.04;60.31;102218.09;5174623;28;20863;-47
2022/05/02 05:22:48;;;;;;;19.67;16.23;;;;;;;9.08;60.31;102220.41;5171594;28;20808;-47
2022/05/02 05:25:43;;;;;;;19.85;15.27;;;;;;;9.11;60.27;102220.22;5171577;28;20417;-48
2022/05/02 05:28:46;;;;;;;20.77;15.27;;;;;;;9.27;60.22;102227.06;5169673;28;20490;-48
2022/05/02 05:31:32;;;;;;;19.35;15.55;;;;;;;9.33;60.26;102210.81;5177120;28;20411;-47
2022/05/02 05:34:24;;;;;;;18.73;15.13;;;;;;;9.42;60.35;102223.34;5173685;28;20776;-47
2022/05/02 05:37:48;;;;;;;19.08;13.70;;;;;;;9.57;60.36;102224.03;5175832;28;20412;-46
2022/05/02 05:40:25;;;;;;;19.40;14.77;;;;;;;9.16;60.14;102119.72;5176198;28;20419;-47
2022/05/02 05:43:24;;;;;;;18.85;13.18;;;;;;;10.73;59.39;102218.13;5179058;28;20867;-47
2022/05/02 05:46:18;;;;;;;17.65;11.98;;;;;;;12.30;57.79;102166.81;5171323;28;20412;-47
2022/05/02 05:49:03;;;;;;;14.97;10.63;;;;;;;14.25;56.24;102208.16;5176475;28;20407;-51
2022/05/02 05:51:41;;;;;;;12.02;8.43;;;;;;;15.80;55.16;102212.16;5173927;28;20491;-41
2022/05/02 05:54:34;;;;;;;13.95;9.15;;;;;;;16.94;54.26;102218.44;5170459;28;20442;-53
2022/05/02 05:57:20;;;;;;;11.93;8.33;;;;;;;17.95;53.38;102210.47;5170777;28;20420;-51
2022/05/02 06:00:09;;;;;;;11.98;8.02;;;;;;;18.52;52.94;102214.16;5176880;28;20419;-49
2022/05/02 06:02:58;;;;;;;12.30;8.45;;;;;;;18.94;51.91;102215.81;5173870;28;20502;-52
2022/05/02 06:05:35;;;;;;;10.57;8.07;;;;;;;19.85;50.42;102222.47;5178259;28;20411;-51
2022/05/02 06:08:11;;;;;;;8.50;7.28;;;;;;;20.82;49.06;102220.03;5171511;28;20532;-51
2022/05/02 06:10:45;;;;;;;9.03;7.27;;;;;;;21.41;48.06;102214.66;5172588;28;20465;-52
2022/05/02 06:13:19;;;;;;;8.40;7.22;;;;;;;21.89;47.16;102214.97;5171991;28;21010;-52
2022/05/02 06:18:47;;;;;;;8.70;7.43;;;;;;;22.40;45.59;102217.56;5169693;28;20417;-51
2022/05/02 06:21:22;;;;;;;8.60;6.95;;;;;;;22.68;45.07;102216.72;5173517;28;20509;-54
2022/05/02 06:23:56;;;;;;;10.50;7.18;;;;;;;23.27;43.94;102213.56;5171877;28;20413;-53
2022/05/02 06:26:28;;;;;;;11.10;7.47;;;;;;;23.61;43.28;102214.53;5173104;28;20929;-54
2022/05/02 06:29:02;;;;;;;8.23;7.03;;;;;;;23.52;42.94;102213.88;5173059;28;20510;-54
2022/05/02 06:31:39;;;;;;;8.60;6.78;;;;;;;23.19;42.87;102208.34;5175088;28;20400;-55
2022/05/02 06:34:14;;;;;;;11.00;7.67;;;;;;;23.46;42.29;102220.06;5173889;28;20488;-57
2022/05/02 06:37:24;;;;;;;9.10;6.72;;;;;;;23.91;41.61;102217.75;5160312;28;20520;-58
2022/05/02 06:40:14;;;;;;;9.43;7.53;;;;;;;24.36;40.83;102215.28;5167474;28;20515;-59
2022/05/02 06:42:55;;;;;;;15.82;7.30;;;;;;;24.65;40.25;102214.03;5173203;28;20423;-59
2022/05/02 06:45:46;;;;;;;10.23;7.75;;;;;;;24.84;39.79;102193.44;5172069;28;20436;-57
2022/05/02 06:48:31;;;;;;;10.87;7.20;;;;;;;25.14;39.34;102218.09;5178835;28;20415;-56
2022/05/02 06:51:07;;;;;;;9.77;6.95;;;;;;;25.26;39.05;102219.09;5173982;28;20536;-57
2022/05/02 06:54:26;;;;;;;12.32;7.38;;;;;;;25.46;38.62;102223.63;5170764;28;20420;-56
2022/05/02 06:57:09;;;;;;;9.02;7.00;;;;;;;25.93;38.01;102194.44;5164693;28;20840;-58
2022/05/02 06:59:52;;;;;;;12.52;7.38;;;;;;;26.44;37.35;102198.78;5170020;28;20425;-57
2022/05/02 07:03:09;;;;;;;10.23;7.22;;;;;;;26.27;37.35;102206.66;5175370;28;20512;-58
2022/05/02 07:05:58;;;;;;;10.40;7.53;;;;;;;25.64;38.00;102207.50;5163426;28;20573;-54
2022/05/02 07:08:34;;;;;;;10.90;6.63;;;;;;;25.83;37.55;102216.56;5165925;28;20867;-58
2022/05/02 07:11:09;;;;;;;10.90;7.28;;;;;;;26.14;37.17;102204.06;5169182;28;20413;-52
2022/05/02 07:13:52;;;;;;;9.98;6.90;;;;;;;25.67;37.48;102207.03;5167677;28;20411;-58
2022/05/02 07:16:26;;;;;;;17.17;10.65;;;;;;;25.64;37.15;102210.19;5168094;28;20427;-57
2022/05/02 07:19:23;;;;;;;16.63;10.88;;;;;;;25.61;36.90;102210.63;5177573;28;20423;-57
2022/05/02 07:22:02;;;;;;;21.13;12.23;;;;;;;26.05;36.42;102214.34;5186929;28;20494;-58
2022/05/02 07:24:50;;;;;;;12.70;7.32;;;;;;;26.73;35.83;102204.56;5188264;28;20870;-58
2022/05/02 07:27:40;;;;;;;8.75;6.65;;;;;;;27.29;34.97;102198.94;5179720;28;20500;-57
2022/05/02 07:30:15;;;;;;;9.40;7.03;;;;;;;27.22;35.10;102211.75;5176384;28;20411;-58
2022/05/02 07:32:48;;;;;;;8.65;6.50;;;;;;;27.08;35.41;102213.78;5186452;28;20899;-58
2022/05/02 07:35:22;;;;;;;9.02;7.40;;;;;;;27.37;35.04;102205.94;5187301;28;20566;-58
2022/05/02 07:37:56;;;;;;;8.77;6.93;;;;;;;27.32;35.02;102216.66;5177626;28;20918;-59
2022/05/02 07:40:30;;;;;;;10.90;6.75;;;;;;;26.84;35.60;102212.78;5183653;28;20451;-57
2022/05/02 07:43:04;;;;;;;11.02;7.00;;;;;;;27.04;35.16;102212.59;5179590;28;20777;-57
2022/05/02 07:45:37;;;;;;;9.68;7.45;;;;;;;27.39;34.66;102213.84;5167861;28;20407;-56
2022/05/02 07:48:12;;;;;;;8.43;5.55;;;;;;;27.67;34.45;102178.81;5170639;28;20511;-57
2022/05/02 07:50:45;;;;;;;7.20;6.43;;;;;;;27.39;34.61;102211.97;5170028;28;20462;-58
2022/05/02 07:53:22;;;;;;;9.23;6.13;;;;;;;26.52;35.37;102187.69;5171899;28;20504;-57
2022/05/02 07:55:57;;;;;;;10.25;6.43;;;;;;;26.47;35.31;102187.50;5173645;28;20927;-55
2022/05/02 07:58:30;;;;;;;8.13;5.88;;;;;;;26.97;35.04;102211.00;5170984;28;20421;-58
2022/05/02 08:01:02;;;;;;;9.40;6.28;;;;;;;26.55;35.24;102211.63;5173324;28;20502;-57
2022/05/02 08:03:35;;;;;;;7.28;5.60;;;;;;;26.73;35.05;102210.84;5171710;28;20524;-58
2022/05/02 08:06:20;;;;;;;8.43;5.72;;;;;;;27.19;34.63;102208.66;5158207;28;20432;-57
2022/05/02 08:09:04;;;;;;;9.23;5.70;;;;;;;27.57;34.37;102217.34;5165829;28;20839;-56
2022/05/02 08:11:48;;;;;;;8.85;5.47;;;;;;;27.84;34.30;102210.75;5168677;28;20431;-54
2022/05/02 08:14:28;;;;;;;10.20;7.10;;;;;;;27.72;34.29;102169.97;5151695;28;20413;-58
2022/05/02 08:17:07;;;;;;;10.20;6.10;;;;;;;27.85;34.43;102224.09;5151978;28;20427;-57
2022/05/02 08:19:52;;;;;;;10.80;5.83;;;;;;;27.47;34.77;102222.53;5161915;28;20486;-56
2022/05/02 08:28:41;;;;;;;8.83;6.60;;;;;;;25.08;36.60;102189.19;5166354;28;20412;-54
2022/05/02 08:31:21;;;;;;;8.80;6.15;;;;;;;25.16;36.44;102221.44;5166038;28;20417;-59
2022/05/02 08:34:02;;;;;;;11.53;5.90;;;;;;;24.26;36.94;102218.41;5169608;28;20463;-58
2022/05/02 08:36:47;;;;;;;10.50;6.83;;;;;;;23.55;37.32;102185.69;5163505;28;20506;-58
2022/05/02 08:39:28;;;;;;;8.13;6.30;;;;;;;23.30;37.56;102210.47;5166863;28;20429;-56
2022/05/02 08:43:20;;;;;;;9.27;6.57;;;;;;;23.08;37.32;102196.28;5167673;28;20487;-57
2022/05/02 08:46:36;;;;;;;11.13;7.18;;;;;;;23.01;37.28;102207.03;5114231;28;20824;-57
2022/05/02 08:50:08;;;;;;;9.05;5.47;;;;;;;22.78;37.17;102211.81;5108263;28;20792;-55
2022/05/02 08:53:31;;;;;;;11.67;6.33;;;;;;;22.41;37.32;102213.84;5167251;28;20411;-57
2022/05/02 08:56:53;;;;;;;7.38;6.07;;;;;;;22.08;37.36;102206.28;5152047;28;20567;-55
2022/05/02 08:59:58;;;;;;;7.00;4.55;;;;;;;22.19;37.01;102212.19;5157603;28;20959;-54
2022/05/02 09:03:33;;;;;;;10.73;6.07;;;;;;;22.27;36.65;102209.38;5165474;28;20749;-55
2022/05/02 09:06:48;;;;;;;9.02;5.63;;;;;;;22.34;36.40;102204.88;5165232;28;20427;-54
2022/05/02 09:10:01;;;;;;;8.02;5.95;;;;;;;22.19;36.52;102201.44;5168592;28;20506;-56
2022/05/02 09:13:32;;;;;;;8.38;6.20;;;;;;;21.40;36.95;102208.44;5166705;28;20760;-54
2022/05/02 09:16:51;;;;;;;8.45;5.47;;;;;;;21.27;36.83;102202.03;5119565;28;21047;-57
2022/05/02 09:20:04;;;;;;;9.15;6.20;;;;;;;21.61;36.44;102198.75;5163297;28;20416;-53
2022/05/02 09:23:41;;;;;;;8.60;6.13;;;;;;;21.70;36.16;102196.78;5158707;28;20442;-55
2022/05/02 09:27:08;;;;;;;9.88;5.68;;;;;;;21.97;35.73;102196.03;5168326;28;20413;-55
2022/05/02 09:30:19;;;;;;;8.75;6.15;;;;;;;22.07;35.68;102196.53;5166919;28;20460;-57
2022/05/02 09:33:15;;;;;;;10.20;6.22;;;;;;;21.61;35.89;102194.19;5171313;28;20421;-55
2022/05/02 09:35:54;;;;;;;14.23;7.07;;;;;;;21.59;35.84;102177.44;5162389;28;20409;-54
2022/05/02 09:38:31;;;;;;;11.63;8.18;;;;;;;21.74;35.46;102161.28;5169325;28;20405;-55
2022/05/02 09:41:15;;;;;;;6.95;5.60;;;;;;;21.83;35.45;102191.53;5171640;28;20425;-55
2022/05/02 09:50:20;;;;;;;8.13;6.45;;;;;;;21.32;35.28;102188.88;5154292;28;20415;-53
2022/05/02 09:53:13;;;;;;;10.55;6.13;;;;;;;21.33;34.78;102172.56;5188770;28;20456;-55
2022/05/02 09:58:55;;;;;;;9.23;5.20;;;;;;;21.72;34.48;102189.38;5187249;28;20486;-54
2022/05/02 10:01:32;;;;;;;7.15;5.90;;;;;;;21.33;34.15;102158.28;5180809;28;20428;-52
2022/05/02 10:04:31;;;;;;;8.90;6.20;;;;;;;21.24;34.28;102189.81;5188148;28;20430;-58
2022/05/02 10:07:09;;;;;;;15.10;10.23;;;;;;;20.93;34.35;102180.13;5182571;28;20419;-51
2022/05/02 10:10:03;;;;;;;10.38;5.95;;;;;;;20.70;34.51;102182.88;5182349;28;20521;-50
2022/05/02 10:12:50;;;;;;;10.77;6.97;;;;;;;20.83;34.16;102162.63;5179771;28;20480;-50
2022/05/02 10:15:57;;;;;;;9.52;5.65;;;;;;;21.22;33.96;102177.59;5178288;28;20577;-53
2022/05/02 10:18:52;;;;;;;9.98;5.97;;;;;;;21.35;33.51;102184.00;5166517;28;20509;-53
2022/05/02 10:22:00;;;;;;;11.60;6.10;;;;;;;21.34;33.53;102181.47;5185793;28;20469;-50
2022/05/02 10:25:00;;;;;;;13.07;6.93;;;;;;;21.12;33.63;102184.09;5163846;28;20425;-52
2022/05/02 10:27:46;;;;;;;6.80;5.47;;;;;;;20.67;33.96;102180.56;5184727;28;20480;-52
2022/05/02 10:30:20;;;;;;;9.50;5.90;;;;;;;20.36;34.12;102169.13;5182792;28;20494;-52
2022/05/02 10:32:56;;;;;;;9.25;6.20;;;;;;;20.02;34.34;102173.91;5186926;28;20555;-53
2022/05/02 10:35:29;;;;;;;8.70;5.00;;;;;;;19.91;34.34;102171.66;5206810;28;20931;-54
2022/05/02 10:38:04;;;;;;;63.42;41.38;;;;;;;19.80;34.16;102172.91;5194721;28;20850;-54
2022/05/02 10:40:42;;;;;;;8.45;5.05;;;;;;;19.70;34.28;102175.00;5182828;28;20429;-47
2022/05/02 10:43:25;;;;;;;16.73;11.18;;;;;;;19.47;34.24;102169.56;5182168;28;20410;-52
2022/05/02 10:45:58;;;;;;;31.60;22.13;;;;;;;19.67;34.06;102172.66;5145539;28;20499;-53
2022/05/02 10:48:42;;;;;;;133.13;81.60;;;;;;;19.81;33.80;102169.22;5178649;28;20545;-52
2022/05/02 10:51:20;;;;;;;13.97;9.20;;;;;;;20.02;33.53;102151.63;5178630;28;20419;-52
2022/05/02 10:54:19;;;;;;;9.32;5.45;;;;;;;20.25;33.38;102155.13;5182867;28;20493;-54
2022/05/02 10:56:59;;;;;;;56.65;39.13;;;;;;;20.03;33.68;102169.38;5182262;28;20912;-55
2022/05/02 11:00:24;;;;;;;27.20;16.10;;;;;;;20.00;33.63;102172.41;5182630;28;25171;-55
2022/05/02 11:03:12;;;;;;;16.23;12.55;;;;;;;19.91;33.57;102168.13;5181312;28;25105;-56
2022/05/02 11:06:00;;;;;;;19.70;12.95;;;;;;;20.02;33.51;102165.03;5183517;28;24975;-56
2022/05/02 11:08:42;;;;;;;11.35;6.13;;;;;;;19.83;33.63;102165.53;5185146;28;20480;-56
2022/05/02 11:11:28;;;;;;;8.93;5.43;;;;;;;19.88;33.65;102158.63;5180041;28;20476;-52
2022/05/02 11:14:13;;;;;;;10.60;7.17;;;;;;;19.79;33.87;102149.81;5184060;28;21022;-55
2022/05/02 11:17:00;;;;;;;12.00;7.13;;;;;;;19.63;33.81;102116.88;5182758;28;20460;-53
2022/05/02 11:22:37;;;;;;;10.57;7.13;;;;;;;19.73;34.00;102158.56;5183275;28;20399;-52
2022/05/02 11:25:18;;;;;;;9.95;7.85;;;;;;;19.78;34.03;102158.84;5181772;28;20415;-52
2022/05/02 11:28:04;;;;;;;9.85;7.00;;;;;;;19.91;34.01;102157.41;5186261;28;20541;-53
2022/05/02 11:30:51;;;;;;;10.30;7.43;;;;;;;19.56;34.01;102098.00;5183798;28;20460;-50
2022/05/02 11:33:35;;;;;;;10.30;7.57;;;;;;;20.01;34.08;102139.25;5185479;28;20510;-50
2022/05/02 11:36:12;;;;;;;10.45;7.68;;;;;;;20.26;33.77;102146.06;5184139;28;20895;-54
2022/05/02 11:38:56;;;;;;;9.48;7.47;;;;;;;20.37;33.71;102136.72;5184391;28;20447;-51
2022/05/02 11:41:31;;;;;;;12.05;7.32;;;;;;;20.39;33.83;102139.22;5184457;28;20417;-55
2022/05/02 11:44:14;;;;;;;12.98;9.35;;;;;;;20.37;34.29;102142.09;5187855;28;20468;-53
2022/05/02 11:47:07;;;;;;;9.70;8.00;;;;;;;20.30;34.16;102143.00;5181896;28;20430;-51
2022/05/02 11:49:58;;;;;;;10.60;7.95;;;;;;;20.14;34.64;102131.41;5175513;28;20456;-53
2022/05/02 11:52:35;;;;;;;13.65;8.45;;;;;;;20.31;34.56;102129.41;5184284;28;20504;-49
2022/05/02 11:55:10;;;;;;;12.27;9.15;;;;;;;20.37;34.58;102125.97;5179780;28;20519;-52
2022/05/02 11:57:50;;;;;;;13.40;9.57;;;;;;;20.38;34.83;102134.91;5179787;28;20905;-50
2022/05/02 12:00:30;;;;;;;13.07;8.57;;;;;;;20.56;34.56;102139.91;5185225;28;20495;-54
2022/05/02 12:03:16;;;;;;;10.50;8.23;;;;;;;20.54;34.59;102129.38;5183258;28;20525;-53
2022/05/02 12:05:53;;;;;;;10.37;8.40;;;;;;;20.17;35.13;102114.13;5182705;28;20526;-53
2022/05/02 12:08:33;;;;;;;10.85;8.32;;;;;;;20.22;35.18;102134.03;5183911;28;20435;-51
2022/05/02 12:11:08;;;;;;;9.95;7.45;;;;;;;20.15;35.13;102135.75;5180998;28;20472;-52
2022/05/02 12:13:46;;;;;;;11.38;8.00;;;;;;;20.31;34.99;102136.63;5183063;28;20431;-49
2022/05/02 12:16:20;;;;;;;11.35;7.93;;;;;;;20.64;34.95;102131.78;5181906;28;20832;-54
2022/05/02 12:18:56;;;;;;;14.20;8.07;;;;;;;20.95;34.64;102134.28;5186156;28;20470;-53
2022/05/02 12:21:40;;;;;;;11.80;7.72;;;;;;;20.87;34.69;102129.84;5183300;28;20471;-51
2022/05/02 12:24:27;;;;;;;13.77;8.07;;;;;;;20.87;34.57;102134.38;5179293;28;20534;-49
2022/05/02 12:27:00;;;;;;;13.48;9.25;;;;;;;21.14;34.59;102122.09;5181843;28;20533;-55
2022/05/02 12:29:32;;;;;;;10.23;7.97;;;;;;;21.38;34.12;102112.91;5176413;28;20452;-55
2022/05/02 12:32:08;;;;;;;13.48;7.82;;;;;;;21.16;34.37;102091.34;5184239;28;20422;-57
2022/05/02 12:34:44;;;;;;;14.00;8.57;;;;;;;21.24;34.49;102111.06;5180240;28;20456;-58
2022/05/02 12:37:24;;;;;;;10.90;6.90;;;;;;;21.14;34.63;102111.38;5182196;28;20521;-58
2022/05/02 12:40:06;;;;;;;9.25;6.70;;;;;;;21.31;34.40;102111.97;5183062;28;20497;-53
2022/05/02 12:42:44;;;;;;;11.57;7.25;;;;;;;21.47;34.08;102101.03;5180360;28;20464;-54
2022/05/02 12:45:18;;;;;;;10.00;7.30;;;;;;;21.41;34.29;102107.97;5186346;28;20923;-53